createdAt,value
2018-06-13T00:00:11.162Z,15.70
2018-06-13T00:00:44.995Z,15.70
2018-06-13T00:01:19.242Z,15.70
2018-06-13T00:01:53.138Z,15.70
2018-06-13T00:02:27.017Z,15.70
2018-06-13T00:03:00.880Z,15.70
2018-06-13T00:04:08.771Z,15.70
2018-06-13T00:04:42.639Z,15.70
2018-06-13T00:05:16.602Z,15.70
2018-06-13T00:05:50.437Z,15.70
2018-06-13T00:06:24.286Z,15.60
2018-06-13T00:06:58.156Z,15.70
2018-06-13T00:07:32.010Z,15.70
2018-06-13T00:08:06.069Z,15.60
2018-06-13T00:08:39.989Z,15.70
2018-06-13T00:09:13.835Z,15.60
2018-06-13T00:09:48.358Z,15.70
2018-06-13T00:10:22.208Z,15.60
2018-06-13T00:10:56.076Z,15.70
2018-06-13T00:11:29.902Z,15.70
2018-06-13T00:12:03.742Z,15.70
2018-06-13T00:12:37.583Z,15.60
2018-06-13T00:13:11.428Z,15.70
2018-06-13T00:13:45.283Z,15.70
2018-06-13T00:14:19.201Z,15.60
2018-06-13T00:14:53.050Z,15.70
2018-06-13T00:15:26.884Z,15.60
2018-06-13T00:16:01.061Z,15.70
2018-06-13T00:16:35.229Z,15.70
2018-06-13T00:17:09.082Z,15.70
2018-06-13T00:17:42.959Z,15.60
2018-06-13T00:18:16.869Z,15.60
2018-06-13T00:18:50.818Z,15.60
2018-06-13T00:19:24.699Z,15.60
2018-06-13T00:19:58.582Z,15.60
2018-06-13T00:20:32.428Z,15.70
2018-06-13T00:21:06.627Z,15.70
2018-06-13T00:22:14.070Z,15.70
2018-06-13T00:22:47.922Z,15.60
2018-06-13T00:23:21.760Z,15.60
2018-06-13T00:23:55.662Z,15.60
2018-06-13T00:24:29.624Z,15.60
2018-06-13T00:25:03.819Z,15.60
2018-06-13T00:25:37.717Z,15.60
2018-06-13T00:26:11.542Z,15.60
2018-06-13T00:26:45.412Z,15.60
2018-06-13T00:27:19.360Z,15.60
2018-06-13T00:27:53.202Z,15.60
2018-06-13T00:28:27.023Z,15.60
2018-06-13T00:29:00.940Z,15.60
2018-06-13T00:29:34.772Z,15.60
2018-06-13T00:30:08.745Z,15.60
2018-06-13T00:30:42.632Z,15.60
2018-06-13T00:31:16.830Z,15.60
2018-06-13T00:31:50.730Z,15.60
2018-06-13T00:32:58.104Z,15.60
2018-06-13T00:33:32.062Z,15.60
2018-06-13T00:34:06.106Z,15.60
2018-06-13T00:34:40.469Z,15.60
2018-06-13T00:35:14.807Z,15.60
2018-06-13T00:35:48.648Z,15.60
2018-06-13T00:36:22.850Z,15.60
2018-06-13T00:36:56.759Z,15.60
2018-06-13T00:37:30.878Z,15.60
2018-06-13T00:38:04.752Z,15.50
2018-06-13T00:38:39.276Z,15.50
2018-06-13T00:39:13.244Z,15.50
2018-06-13T00:39:47.094Z,15.50
2018-06-13T00:40:20.993Z,15.50
2018-06-13T00:40:54.880Z,15.50
2018-06-13T00:41:29.940Z,15.50
2018-06-13T00:42:04.492Z,15.50
2018-06-13T00:42:38.377Z,15.50
2018-06-13T00:43:12.214Z,15.50
2018-06-13T00:43:46.070Z,15.50
2018-06-13T00:44:19.960Z,15.50
2018-06-13T00:44:53.814Z,15.50
2018-06-13T00:45:27.701Z,15.50
2018-06-13T00:46:02.070Z,15.50
2018-06-13T00:46:35.924Z,15.50
2018-06-13T00:47:09.766Z,15.50
2018-06-13T00:47:43.640Z,15.50
2018-06-13T00:48:17.835Z,15.50
2018-06-13T00:48:51.764Z,15.40
2018-06-13T00:50:02.196Z,15.40
2018-06-13T00:50:36.104Z,15.40
2018-06-13T00:51:10.112Z,15.40
2018-06-13T00:51:44.030Z,15.40
2018-06-13T00:52:18.238Z,15.40
2018-06-13T00:52:52.097Z,15.40
2018-06-13T00:54:01.064Z,15.40
2018-06-13T00:54:34.984Z,15.40
2018-06-13T00:55:08.832Z,15.40
2018-06-13T00:55:54.302Z,15.40
2018-06-13T00:56:30.033Z,15.40
2018-06-13T00:57:03.887Z,15.40
2018-06-13T00:57:37.798Z,15.40
2018-06-13T00:58:11.618Z,15.40
2018-06-13T00:58:45.984Z,15.40
2018-06-13T00:59:21.114Z,15.40
2018-06-13T00:59:54.979Z,15.40
2018-06-13T01:00:28.834Z,15.30
2018-06-13T01:01:02.680Z,15.30
2018-06-13T01:01:36.562Z,15.40
2018-06-13T01:02:10.438Z,15.40
2018-06-13T01:02:44.312Z,15.40
2018-06-13T01:03:18.134Z,15.30
2018-06-13T01:03:52.280Z,15.40
2018-06-13T01:04:26.340Z,15.40
2018-06-13T01:05:00.814Z,15.30
2018-06-13T01:05:34.725Z,15.30
2018-06-13T01:06:08.599Z,15.30
2018-06-13T01:06:42.938Z,15.30
2018-06-13T01:07:16.828Z,15.30
2018-06-13T01:07:50.698Z,15.30
2018-06-13T01:08:24.536Z,15.30
2018-06-13T01:08:58.454Z,15.30
2018-06-13T01:09:32.314Z,15.30
2018-06-13T01:10:06.530Z,15.30
2018-06-13T01:10:40.395Z,15.30
2018-06-13T01:11:14.256Z,15.30
2018-06-13T01:11:48.166Z,15.30
2018-06-13T01:12:22.044Z,15.30
2018-06-13T01:12:55.896Z,15.30
2018-06-13T01:13:29.863Z,15.30
2018-06-13T01:14:03.878Z,15.30
2018-06-13T01:14:37.758Z,15.30
2018-06-13T01:15:11.662Z,15.30
2018-06-13T01:15:45.554Z,15.30
2018-06-13T01:16:19.750Z,15.30
2018-06-13T01:16:53.611Z,15.30
2018-06-13T01:17:27.462Z,15.30
2018-06-13T01:18:01.618Z,15.30
2018-06-13T01:18:35.500Z,15.30
2018-06-13T01:19:09.403Z,15.30
2018-06-13T01:19:43.594Z,15.30
2018-06-13T01:20:17.488Z,15.20
2018-06-13T01:20:51.475Z,15.30
2018-06-13T01:21:25.439Z,15.30
2018-06-13T01:21:59.306Z,15.30
2018-06-13T01:22:33.230Z,15.30
2018-06-13T01:23:07.438Z,15.20
2018-06-13T01:23:41.331Z,15.30
2018-06-13T01:24:15.257Z,15.20
2018-06-13T01:24:49.098Z,15.30
2018-06-13T01:25:22.985Z,15.30
2018-06-13T01:25:57.158Z,15.20
2018-06-13T01:26:31.032Z,15.20
2018-06-13T01:27:04.926Z,15.20
2018-06-13T01:27:39.151Z,15.20
2018-06-13T01:28:12.971Z,15.20
2018-06-13T01:28:46.870Z,15.20
2018-06-13T01:29:20.769Z,15.20
2018-06-13T01:29:54.754Z,15.20
2018-06-13T01:30:29.010Z,15.20
2018-06-13T01:31:03.189Z,15.20
2018-06-13T01:31:37.055Z,15.20
2018-06-13T01:32:10.913Z,15.10
2018-06-13T01:32:44.778Z,15.20
2018-06-13T01:33:18.646Z,15.20
2018-06-13T01:33:52.497Z,15.20
2018-06-13T01:34:26.387Z,15.20
2018-06-13T01:35:00.273Z,15.20
2018-06-13T01:35:35.380Z,15.20
2018-06-13T01:36:09.572Z,15.10
2018-06-13T01:36:43.566Z,15.20
2018-06-13T01:37:17.438Z,15.20
2018-06-13T01:37:51.642Z,15.20
2018-06-13T01:38:25.468Z,15.20
2018-06-13T01:38:59.340Z,15.20
2018-06-13T01:39:33.201Z,15.20
2018-06-13T01:40:07.044Z,15.20
2018-06-13T01:40:40.922Z,15.20
2018-06-13T01:41:14.764Z,15.20
2018-06-13T01:41:48.623Z,15.20
2018-06-13T01:42:22.640Z,15.20
2018-06-13T01:42:56.745Z,15.20
2018-06-13T01:43:30.580Z,15.20
2018-06-13T01:44:04.756Z,15.20
2018-06-13T01:44:38.618Z,15.20
2018-06-13T01:45:12.486Z,15.10
2018-06-13T01:45:46.366Z,15.20
2018-06-13T01:46:20.496Z,15.10
2018-06-13T01:46:54.330Z,15.20
2018-06-13T01:47:28.240Z,15.20
2018-06-13T01:48:02.108Z,15.10
2018-06-13T01:48:35.989Z,15.10
2018-06-13T01:49:09.851Z,15.10
2018-06-13T01:49:43.695Z,15.10
2018-06-13T01:50:17.903Z,15.10
2018-06-13T01:50:56.110Z,15.20
2018-06-13T01:51:29.954Z,15.10
2018-06-13T01:52:06.484Z,15.10
2018-06-13T01:52:40.328Z,15.10
2018-06-13T01:53:14.502Z,15.10
2018-06-13T01:53:48.367Z,15.10
2018-06-13T01:54:22.216Z,15.10
2018-06-13T01:54:56.086Z,15.10
2018-06-13T01:55:29.921Z,15.10
2018-06-13T01:56:03.801Z,15.10
2018-06-13T01:56:37.633Z,15.10
2018-06-13T01:57:11.489Z,15.10
2018-06-13T01:57:45.416Z,15.10
2018-06-13T01:58:19.274Z,15.10
2018-06-13T01:58:53.170Z,15.10
2018-06-13T01:59:27.025Z,15.10
2018-06-13T02:00:00.861Z,15.10
2018-06-13T02:00:34.730Z,15.10
2018-06-13T02:01:08.978Z,15.10
2018-06-13T02:01:42.812Z,15.10
2018-06-13T02:02:16.696Z,15.10
2018-06-13T02:02:50.550Z,15.10
2018-06-13T02:03:24.402Z,15.10
2018-06-13T02:03:58.234Z,15.10
2018-06-13T02:04:32.402Z,15.10
2018-06-13T02:05:06.256Z,15.10
2018-06-13T02:05:40.436Z,15.10
2018-06-13T02:06:14.310Z,15.10
2018-06-13T02:06:48.142Z,15.10
2018-06-13T02:07:21.964Z,15.00
2018-06-13T02:07:55.806Z,15.10
2018-06-13T02:08:29.650Z,15.10
2018-06-13T02:09:03.954Z,15.10
2018-06-13T02:09:37.818Z,15.10
2018-06-13T02:10:11.728Z,15.10
2018-06-13T02:10:45.590Z,15.10
2018-06-13T02:11:19.464Z,15.10
2018-06-13T02:11:53.329Z,15.10
2018-06-13T02:12:27.206Z,15.10
2018-06-13T02:13:01.083Z,15.00
2018-06-13T02:13:34.946Z,15.00
2018-06-13T02:14:08.791Z,15.10
2018-06-13T02:14:42.646Z,15.10
2018-06-13T02:15:16.486Z,15.00
2018-06-13T02:15:50.698Z,15.10
2018-06-13T02:16:24.570Z,15.00
2018-06-13T02:16:58.416Z,15.00
2018-06-13T02:17:32.304Z,15.10
2018-06-13T02:18:06.110Z,15.00
2018-06-13T02:19:14.068Z,15.00
2018-06-13T02:19:47.896Z,15.00
2018-06-13T02:20:21.754Z,15.00
2018-06-13T02:20:55.680Z,15.00
2018-06-13T02:21:29.603Z,15.00
2018-06-13T02:22:03.794Z,15.00
2018-06-13T02:22:37.640Z,15.00
2018-06-13T02:23:11.512Z,15.00
2018-06-13T02:23:45.734Z,15.00
2018-06-13T02:24:19.588Z,15.00
2018-06-13T02:24:56.508Z,15.00
2018-06-13T02:25:30.388Z,15.00
2018-06-13T02:26:04.906Z,15.00
2018-06-13T02:26:38.772Z,15.00
2018-06-13T02:27:12.634Z,15.00
2018-06-13T02:27:46.513Z,15.00
2018-06-13T02:28:20.382Z,15.00
2018-06-13T02:28:54.258Z,15.00
2018-06-13T02:29:28.105Z,14.90
2018-06-13T02:30:01.934Z,15.00
2018-06-13T02:30:36.028Z,15.00
2018-06-13T02:31:09.906Z,14.90
2018-06-13T02:31:43.802Z,15.00
2018-06-13T02:32:17.686Z,15.00
2018-06-13T02:32:51.556Z,14.90
2018-06-13T02:33:25.473Z,14.90
2018-06-13T02:33:59.330Z,14.90
2018-06-13T02:34:33.184Z,14.90
2018-06-13T02:35:07.020Z,14.90
2018-06-13T02:35:40.888Z,15.00
2018-06-13T02:36:14.766Z,14.90
2018-06-13T02:36:48.648Z,15.00
2018-06-13T02:37:22.557Z,14.90
2018-06-13T02:37:56.499Z,15.00
2018-06-13T02:38:30.387Z,14.90
2018-06-13T02:39:05.693Z,14.90
2018-06-13T02:39:39.573Z,15.00
2018-06-13T02:40:13.458Z,15.00
2018-06-13T02:40:47.334Z,14.90
2018-06-13T02:41:21.220Z,14.90
2018-06-13T02:41:55.122Z,15.00
2018-06-13T02:43:02.508Z,14.90
2018-06-13T02:43:37.962Z,14.90
2018-06-13T02:44:11.814Z,14.90
2018-06-13T02:44:45.674Z,14.90
2018-06-13T02:45:19.533Z,14.90
2018-06-13T02:45:53.405Z,14.90
2018-06-13T02:46:27.292Z,14.90
2018-06-13T02:47:01.201Z,14.90
2018-06-13T02:47:35.080Z,14.90
2018-06-13T02:48:08.958Z,14.90
2018-06-13T02:48:43.217Z,14.90
2018-06-13T02:49:17.100Z,14.90
2018-06-13T02:49:51.064Z,14.90
2018-06-13T02:50:25.007Z,14.90
2018-06-13T02:50:58.936Z,14.90
2018-06-13T02:51:32.806Z,14.90
2018-06-13T02:52:06.732Z,14.90
2018-06-13T02:52:40.646Z,14.90
2018-06-13T02:53:14.495Z,14.90
2018-06-13T02:53:48.308Z,14.90
2018-06-13T02:54:22.172Z,14.80
2018-06-13T02:54:56.028Z,14.80
2018-06-13T02:55:30.001Z,14.90
2018-06-13T02:56:03.848Z,14.80
2018-06-13T02:56:37.679Z,14.80
2018-06-13T02:57:11.544Z,14.80
2018-06-13T02:57:45.400Z,14.80
2018-06-13T02:58:19.266Z,14.80
2018-06-13T02:58:53.160Z,14.80
2018-06-13T02:59:27.025Z,14.80
2018-06-13T03:00:00.896Z,14.80
2018-06-13T03:00:34.754Z,14.80
2018-06-13T03:01:08.626Z,14.80
2018-06-13T03:01:42.492Z,14.80
2018-06-13T03:02:16.414Z,14.80
2018-06-13T03:02:57.100Z,14.80
2018-06-13T03:03:30.962Z,14.80
2018-06-13T03:04:04.811Z,14.80
2018-06-13T03:04:38.648Z,14.80
2018-06-13T03:05:12.492Z,14.80
2018-06-13T03:05:46.349Z,14.80
2018-06-13T03:06:20.524Z,14.80
2018-06-13T03:06:54.379Z,14.80
2018-06-13T03:07:28.238Z,14.80
2018-06-13T03:08:02.054Z,14.90
2018-06-13T03:08:35.882Z,14.80
2018-06-13T03:09:09.719Z,14.90
2018-06-13T03:09:43.568Z,14.90
2018-06-13T03:10:17.779Z,14.90
2018-06-13T03:10:51.665Z,14.80
2018-06-13T03:11:25.544Z,14.90
2018-06-13T03:11:59.426Z,14.90
2018-06-13T03:12:33.301Z,14.90
2018-06-13T03:13:07.152Z,14.90
2018-06-13T03:13:41.015Z,14.90
2018-06-13T03:14:14.874Z,14.90
2018-06-13T03:14:48.698Z,14.90
2018-06-13T03:15:22.556Z,14.90
2018-06-13T03:15:56.452Z,14.90
2018-06-13T03:16:30.670Z,14.90
2018-06-13T03:17:04.510Z,14.90
2018-06-13T03:17:38.364Z,14.90
2018-06-13T03:18:12.206Z,14.90
2018-06-13T03:18:46.369Z,14.90
2018-06-13T03:19:20.240Z,14.90
2018-06-13T03:19:54.098Z,14.90
2018-06-13T03:20:28.344Z,14.90
2018-06-13T03:21:02.480Z,14.90
2018-06-13T03:21:36.317Z,14.90
2018-06-13T03:22:10.166Z,14.90
2018-06-13T03:22:44.057Z,14.90
2018-06-13T03:23:17.904Z,14.90
2018-06-13T03:23:51.774Z,14.90
2018-06-13T03:24:25.659Z,14.90
2018-06-13T03:24:59.497Z,14.90
2018-06-13T03:25:33.396Z,15.00
2018-06-13T03:26:07.641Z,15.00
2018-06-13T03:26:41.470Z,15.00
2018-06-13T03:27:15.366Z,15.00
2018-06-13T03:27:49.276Z,15.00
2018-06-13T03:28:23.142Z,15.00
2018-06-13T03:28:57.120Z,15.00
2018-06-13T03:29:30.963Z,15.00
2018-06-13T03:30:05.165Z,15.00
2018-06-13T03:30:39.083Z,15.00
2018-06-13T03:31:13.294Z,15.00
2018-06-13T03:31:47.197Z,15.00
2018-06-13T03:32:21.071Z,15.00
2018-06-13T03:32:55.035Z,15.00
2018-06-13T03:33:29.090Z,15.00
2018-06-13T03:34:03.287Z,15.00
2018-06-13T03:34:37.180Z,15.00
2018-06-13T03:35:11.055Z,15.00
2018-06-13T03:35:44.939Z,15.00
2018-06-13T03:36:18.798Z,15.00
2018-06-13T03:36:52.740Z,15.10
2018-06-13T03:37:26.576Z,15.10
2018-06-13T03:38:00.526Z,15.10
2018-06-13T03:38:34.381Z,15.10
2018-06-13T03:39:09.096Z,15.10
2018-06-13T03:39:42.969Z,15.10
2018-06-13T03:40:16.837Z,15.10
2018-06-13T03:40:50.677Z,15.20
2018-06-13T03:41:24.549Z,15.10
2018-06-13T03:41:58.397Z,15.20
2018-06-13T03:43:05.828Z,15.20
2018-06-13T03:43:39.685Z,15.20
2018-06-13T03:44:13.887Z,15.20
2018-06-13T03:44:47.781Z,15.20
2018-06-13T03:45:21.661Z,15.20
2018-06-13T03:45:55.521Z,15.20
2018-06-13T03:46:29.377Z,15.20
2018-06-13T03:47:03.219Z,15.20
2018-06-13T03:47:37.095Z,15.20
2018-06-13T03:48:10.981Z,15.20
2018-06-13T03:48:44.865Z,15.20
2018-06-13T03:49:18.771Z,15.20
2018-06-13T03:49:52.629Z,15.20
2018-06-13T03:50:26.483Z,15.20
2018-06-13T03:51:00.382Z,15.20
2018-06-13T03:51:34.245Z,15.20
2018-06-13T03:52:08.458Z,15.20
2018-06-13T03:52:42.427Z,15.20
2018-06-13T03:53:16.416Z,15.20
2018-06-13T03:53:50.283Z,15.20
2018-06-13T03:54:24.183Z,15.20
2018-06-13T03:54:58.070Z,15.20
2018-06-13T03:55:32.019Z,15.20
2018-06-13T03:56:06.208Z,15.20
2018-06-13T03:56:40.384Z,15.20
2018-06-13T03:57:14.227Z,15.20
2018-06-13T03:57:48.091Z,15.20
2018-06-13T03:58:22.053Z,15.20
2018-06-13T03:58:55.970Z,15.20
2018-06-13T03:59:29.845Z,15.20
2018-06-13T04:00:03.697Z,15.20
2018-06-13T04:00:37.601Z,15.20
2018-06-13T04:01:11.445Z,15.20
2018-06-13T04:01:45.320Z,15.20
2018-06-13T04:02:19.363Z,15.20
2018-06-13T04:02:53.227Z,15.10
2018-06-13T04:03:27.114Z,15.20
2018-06-13T04:04:00.981Z,15.20
2018-06-13T04:04:34.849Z,15.20
2018-06-13T04:05:09.027Z,15.20
2018-06-13T04:05:42.861Z,15.20
2018-06-13T04:06:16.711Z,15.20
2018-06-13T04:06:50.551Z,15.20
2018-06-13T04:07:24.414Z,15.20
2018-06-13T04:07:58.371Z,15.10
2018-06-13T04:08:32.266Z,15.20
2018-06-13T04:09:40.601Z,15.20
2018-06-13T04:10:14.479Z,15.20
2018-06-13T04:10:48.310Z,15.20
2018-06-13T04:11:22.165Z,15.20
2018-06-13T04:11:56.031Z,15.20
2018-06-13T04:12:29.861Z,15.20
2018-06-13T04:13:04.023Z,15.20
2018-06-13T04:13:37.965Z,15.20
2018-06-13T04:14:11.980Z,15.20
2018-06-13T04:14:45.833Z,15.20
2018-06-13T04:15:19.669Z,15.20
2018-06-13T04:15:53.614Z,15.20
2018-06-13T04:16:27.473Z,15.20
2018-06-13T04:17:01.335Z,15.20
2018-06-13T04:17:35.175Z,15.20
2018-06-13T04:18:09.041Z,15.20
2018-06-13T04:18:43.257Z,15.20
2018-06-13T04:19:17.109Z,15.20
2018-06-13T04:19:51.017Z,15.20
2018-06-13T04:20:24.877Z,15.20
2018-06-13T04:20:58.723Z,15.20
2018-06-13T04:21:32.949Z,15.20
2018-06-13T04:22:06.843Z,15.20
2018-06-13T04:22:40.762Z,15.20
2018-06-13T04:23:14.633Z,15.20
2018-06-13T04:23:48.535Z,15.20
2018-06-13T04:24:22.441Z,15.20
2018-06-13T04:24:56.291Z,15.20
2018-06-13T04:25:30.160Z,15.20
2018-06-13T04:26:03.979Z,15.20
2018-06-13T04:26:37.851Z,15.20
2018-06-13T04:27:12.021Z,15.20
2018-06-13T04:28:19.479Z,15.20
2018-06-13T04:28:53.375Z,15.20
2018-06-13T04:29:27.401Z,15.20
2018-06-13T04:30:01.269Z,15.20
2018-06-13T04:30:35.179Z,15.20
2018-06-13T04:31:09.077Z,15.20
2018-06-13T04:32:16.505Z,15.20
2018-06-13T04:32:50.392Z,15.20
2018-06-13T04:33:24.300Z,15.20
2018-06-13T04:33:58.221Z,15.20
2018-06-13T04:34:32.119Z,15.20
2018-06-13T04:35:05.996Z,15.20
2018-06-13T04:35:39.877Z,15.20
2018-06-13T04:36:13.735Z,15.20
2018-06-13T04:36:47.629Z,15.20
2018-06-13T04:37:55.376Z,15.20
2018-06-13T04:38:29.319Z,15.20
2018-06-13T04:39:03.293Z,15.20
2018-06-13T04:39:37.189Z,15.20
2018-06-13T04:40:11.123Z,15.20
2018-06-13T04:40:45.042Z,15.20
2018-06-13T04:41:18.936Z,15.20
2018-06-13T04:41:52.879Z,15.20
2018-06-13T04:42:26.713Z,15.20
2018-06-13T04:43:00.573Z,15.20
2018-06-13T04:43:34.422Z,15.20
2018-06-13T04:44:08.345Z,15.20
2018-06-13T04:44:42.196Z,15.20
2018-06-13T04:45:16.083Z,15.20
2018-06-13T04:45:50.027Z,15.20
2018-06-13T04:46:23.901Z,15.20
2018-06-13T04:46:57.857Z,15.30
2018-06-13T04:47:31.749Z,15.30
2018-06-13T04:48:05.711Z,15.30
2018-06-13T04:48:39.572Z,15.30
2018-06-13T04:49:13.521Z,15.30
2018-06-13T04:49:47.377Z,15.30
2018-06-13T04:50:21.237Z,15.30
2018-06-13T04:50:55.098Z,15.30
2018-06-13T04:51:28.943Z,15.30
2018-06-13T04:52:02.842Z,15.30
2018-06-13T04:52:36.746Z,15.30
2018-06-13T04:53:10.625Z,15.30
2018-06-13T04:53:44.521Z,15.30
2018-06-13T04:54:18.429Z,15.30
2018-06-13T04:54:52.297Z,15.40
2018-06-13T04:55:26.129Z,15.30
2018-06-13T04:56:00.018Z,15.40
2018-06-13T04:56:34.243Z,15.40
2018-06-13T04:57:08.079Z,15.40
2018-06-13T04:57:41.954Z,15.40
2018-06-13T04:58:15.868Z,15.40
2018-06-13T04:58:49.915Z,15.40
2018-06-13T04:59:23.809Z,15.50
2018-06-13T04:59:57.668Z,15.50
2018-06-13T05:00:31.516Z,15.50
2018-06-13T05:01:05.753Z,15.50
2018-06-13T05:01:39.647Z,15.50
2018-06-13T05:02:13.524Z,15.50
2018-06-13T05:02:47.417Z,15.50
2018-06-13T05:03:21.311Z,15.60
2018-06-13T05:03:55.175Z,15.60
2018-06-13T05:04:29.077Z,15.60
2018-06-13T05:05:02.957Z,15.60
2018-06-13T05:05:36.806Z,15.60
2018-06-13T05:06:10.735Z,15.60
2018-06-13T05:06:44.940Z,15.60
2018-06-13T05:07:18.795Z,15.60
2018-06-13T05:07:52.703Z,15.60
2018-06-13T05:08:27.235Z,15.60
2018-06-13T05:09:01.122Z,15.60
2018-06-13T05:09:34.986Z,15.60
2018-06-13T05:10:08.871Z,15.60
2018-06-13T05:10:42.747Z,15.60
2018-06-13T05:11:16.602Z,15.60
2018-06-13T05:11:50.499Z,15.60
2018-06-13T05:12:24.357Z,15.60
2018-06-13T05:12:58.545Z,15.70
2018-06-13T05:13:32.411Z,15.70
2018-06-13T05:14:06.247Z,15.80
2018-06-13T05:15:20.371Z,15.80
2018-06-13T05:15:54.264Z,15.80
2018-06-13T05:16:28.233Z,15.80
2018-06-13T05:17:02.079Z,15.80
2018-06-13T05:17:35.979Z,15.80
2018-06-13T05:18:09.865Z,15.80
2018-06-13T05:18:43.789Z,15.80
2018-06-13T05:19:17.661Z,15.80
2018-06-13T05:19:51.581Z,15.80
2018-06-13T05:20:25.447Z,15.80
2018-06-13T05:20:59.297Z,15.80
2018-06-13T05:21:33.137Z,15.80
2018-06-13T05:22:06.981Z,15.80
2018-06-13T05:22:40.823Z,15.80
2018-06-13T05:23:14.713Z,15.80
2018-06-13T05:23:48.553Z,15.90
2018-06-13T05:24:22.405Z,15.90
2018-06-13T05:24:56.279Z,15.90
2018-06-13T05:25:37.083Z,15.90
2018-06-13T05:26:10.889Z,15.90
2018-06-13T05:27:51.893Z,15.90
2018-06-13T05:28:25.753Z,15.90
2018-06-13T05:28:59.596Z,16.00
2018-06-13T05:29:33.454Z,16.00
2018-06-13T05:30:07.367Z,16.00
2018-06-13T05:30:41.215Z,16.00
2018-06-13T05:31:15.487Z,16.00
2018-06-13T05:31:49.369Z,16.00
2018-06-13T05:32:23.281Z,16.00
2018-06-13T05:32:57.121Z,16.00
2018-06-13T05:33:30.972Z,16.00
2018-06-13T05:34:05.377Z,16.00
2018-06-13T05:34:39.270Z,16.10
2018-06-13T05:35:13.173Z,16.10
2018-06-13T05:35:47.340Z,16.10
2018-06-13T05:36:21.203Z,16.10
2018-06-13T05:36:55.048Z,16.10
2018-06-13T05:37:28.935Z,16.10
2018-06-13T05:38:02.803Z,16.10
2018-06-13T05:38:36.664Z,16.10
2018-06-13T05:39:10.524Z,16.10
2018-06-13T05:39:44.350Z,16.10
2018-06-13T05:40:18.252Z,16.10
2018-06-13T05:40:52.461Z,16.10
2018-06-13T05:41:26.308Z,16.10
2018-06-13T05:42:00.210Z,16.10
2018-06-13T05:42:34.075Z,16.10
2018-06-13T05:43:07.973Z,16.10
2018-06-13T05:43:41.865Z,16.10
2018-06-13T05:44:15.718Z,16.10
2018-06-13T05:44:49.585Z,16.10
2018-06-13T05:45:23.476Z,16.10
2018-06-13T05:45:57.340Z,16.10
2018-06-13T05:46:31.203Z,16.10
2018-06-13T05:47:05.106Z,16.10
2018-06-13T05:47:39.278Z,16.10
2018-06-13T05:48:13.418Z,16.10
2018-06-13T05:48:47.281Z,16.10
2018-06-13T05:49:21.123Z,16.10
2018-06-13T05:49:55.020Z,16.10
2018-06-13T05:50:28.880Z,16.10
2018-06-13T05:51:02.775Z,16.10
2018-06-13T05:51:36.958Z,16.10
2018-06-13T05:52:10.929Z,16.10
2018-06-13T05:52:44.800Z,16.10
2018-06-13T05:53:19.016Z,16.10
2018-06-13T05:53:53.220Z,16.10
2018-06-13T05:54:27.099Z,16.10
2018-06-13T05:55:01.414Z,16.10
2018-06-13T05:55:35.433Z,16.10
2018-06-13T05:56:09.311Z,16.10
2018-06-13T05:56:43.494Z,16.10
2018-06-13T05:57:17.339Z,16.10
2018-06-13T05:57:51.207Z,16.10
2018-06-13T05:58:25.058Z,16.00
2018-06-13T05:58:58.887Z,16.00
2018-06-13T05:59:33.046Z,16.00
2018-06-13T06:00:06.908Z,16.00
2018-06-13T06:00:40.811Z,16.00
2018-06-13T06:01:14.688Z,16.00
2018-06-13T06:01:48.735Z,16.10
2018-06-13T06:02:22.603Z,16.10
2018-06-13T06:02:56.473Z,16.10
2018-06-13T06:03:30.462Z,16.10
2018-06-13T06:04:04.459Z,16.10
2018-06-13T06:04:38.326Z,16.10
2018-06-13T06:05:12.550Z,16.20
2018-06-13T06:05:46.436Z,16.20
2018-06-13T06:06:20.366Z,16.20
2018-06-13T06:06:54.198Z,16.20
2018-06-13T06:07:28.075Z,16.20
2018-06-13T06:08:01.922Z,16.30
2018-06-13T06:08:35.795Z,16.30
2018-06-13T06:09:09.712Z,16.30
2018-06-13T06:09:43.549Z,16.30
2018-06-13T06:10:17.431Z,16.40
2018-06-13T06:10:51.501Z,16.40
2018-06-13T06:11:25.317Z,16.40
2018-06-13T06:11:59.212Z,16.50
2018-06-13T06:12:33.152Z,16.50
2018-06-13T06:13:07.181Z,16.50
2018-06-13T06:13:41.030Z,16.50
2018-06-13T06:14:14.897Z,16.60
2018-06-13T06:14:48.744Z,16.60
2018-06-13T06:15:22.607Z,16.60
2018-06-13T06:15:56.498Z,16.60
2018-06-13T06:16:30.383Z,16.70
2018-06-13T06:17:04.237Z,16.70
2018-06-13T06:17:38.113Z,16.70
2018-06-13T06:18:12.013Z,16.70
2018-06-13T06:18:45.894Z,16.70
2018-06-13T06:19:19.742Z,16.70
2018-06-13T06:19:53.608Z,16.70
2018-06-13T06:20:27.476Z,16.70
2018-06-13T06:21:01.704Z,16.80
2018-06-13T06:21:35.741Z,16.80
2018-06-13T06:22:09.606Z,16.80
2018-06-13T06:22:43.762Z,16.80
2018-06-13T06:23:18.053Z,16.80
2018-06-13T06:23:51.970Z,16.80
2018-06-13T06:24:25.826Z,16.80
2018-06-13T06:24:59.750Z,16.80
2018-06-13T06:25:33.611Z,16.80
2018-06-13T06:26:07.494Z,16.80
2018-06-13T06:26:41.390Z,16.80
2018-06-13T06:27:15.259Z,16.90
2018-06-13T06:27:49.138Z,16.90
2018-06-13T06:28:23.340Z,16.90
2018-06-13T06:28:57.232Z,16.90
2018-06-13T06:29:31.124Z,16.90
2018-06-13T06:30:05.337Z,16.90
2018-06-13T06:30:39.519Z,16.90
2018-06-13T06:31:13.393Z,16.90
2018-06-13T06:31:47.284Z,16.90
2018-06-13T06:32:21.192Z,16.90
2018-06-13T06:32:55.076Z,17.00
2018-06-13T06:33:28.928Z,17.00
2018-06-13T06:34:02.780Z,17.00
2018-06-13T06:34:36.614Z,17.00
2018-06-13T06:35:10.456Z,17.00
2018-06-13T06:35:44.646Z,17.00
2018-06-13T06:36:18.552Z,17.00
2018-06-13T06:36:52.410Z,17.00
2018-06-13T06:37:26.456Z,17.10
2018-06-13T06:38:00.318Z,17.10
2018-06-13T06:38:34.188Z,17.10
2018-06-13T06:39:08.913Z,17.10
2018-06-13T06:39:42.770Z,17.10
2018-06-13T06:40:16.614Z,17.10
2018-06-13T06:40:50.529Z,17.10
2018-06-13T06:41:24.768Z,17.20
2018-06-13T06:41:58.630Z,17.20
2018-06-13T06:42:32.520Z,17.20
2018-06-13T06:43:06.368Z,17.30
2018-06-13T06:43:40.236Z,17.30
2018-06-13T06:44:14.103Z,17.30
2018-06-13T06:45:21.830Z,17.40
2018-06-13T06:45:55.699Z,17.40
2018-06-13T06:46:29.588Z,17.40
2018-06-13T06:47:03.426Z,17.40
2018-06-13T06:47:37.280Z,17.40
2018-06-13T06:48:11.560Z,17.40
2018-06-13T06:48:45.404Z,17.40
2018-06-13T06:49:19.259Z,17.40
2018-06-13T06:49:53.197Z,17.40
2018-06-13T06:50:27.410Z,17.40
2018-06-13T06:51:01.278Z,17.40
2018-06-13T06:51:35.185Z,17.40
2018-06-13T06:52:09.094Z,17.40
2018-06-13T06:52:42.989Z,17.40
2018-06-13T06:53:16.832Z,17.40
2018-06-13T06:53:50.698Z,17.40
2018-06-13T06:54:24.590Z,17.40
2018-06-13T06:54:58.835Z,17.30
2018-06-13T06:55:32.816Z,17.40
2018-06-13T06:56:06.839Z,17.40
2018-06-13T06:56:40.739Z,17.40
2018-06-13T06:57:14.575Z,17.40
2018-06-13T06:57:48.476Z,17.40
2018-06-13T06:58:22.368Z,17.40
2018-06-13T06:58:56.347Z,17.40
2018-06-13T06:59:30.200Z,17.40
2018-06-13T07:00:04.490Z,17.40
2018-06-13T07:00:38.358Z,17.40
2018-06-13T07:01:12.216Z,17.40
2018-06-13T07:01:46.101Z,17.40
2018-06-13T07:02:19.955Z,17.40
2018-06-13T07:02:53.798Z,17.40
2018-06-13T07:03:28.003Z,17.40
2018-06-13T07:04:01.885Z,17.50
2018-06-13T07:04:35.825Z,17.50
2018-06-13T07:05:09.683Z,17.40
2018-06-13T07:05:43.890Z,17.50
2018-06-13T07:06:17.771Z,17.50
2018-06-13T07:06:51.718Z,17.50
2018-06-13T07:07:25.600Z,17.50
2018-06-13T07:07:59.453Z,17.50
2018-06-13T07:08:33.273Z,17.60
2018-06-13T07:09:09.171Z,17.60
2018-06-13T07:09:43.043Z,17.50
2018-06-13T07:10:50.758Z,17.60
2018-06-13T07:11:24.683Z,17.60
2018-06-13T07:11:58.563Z,17.60
2018-06-13T07:12:32.583Z,17.60
2018-06-13T07:13:06.455Z,17.70
2018-06-13T07:13:40.309Z,17.70
2018-06-13T07:14:14.153Z,17.70
2018-06-13T07:14:48.009Z,17.70
2018-06-13T07:15:22.218Z,17.70
2018-06-13T07:15:56.111Z,17.80
2018-06-13T07:16:30.295Z,17.80
2018-06-13T07:17:37.723Z,17.80
2018-06-13T07:18:11.649Z,17.90
2018-06-13T07:18:45.877Z,17.90
2018-06-13T07:19:19.801Z,17.90
2018-06-13T07:19:53.702Z,18.00
2018-06-13T07:20:27.551Z,18.10
2018-06-13T07:21:01.415Z,18.10
2018-06-13T07:21:35.272Z,18.10
2018-06-13T07:22:09.136Z,18.10
2018-06-13T07:22:42.977Z,18.00
2018-06-13T07:23:17.509Z,18.00
2018-06-13T07:23:51.377Z,18.00
2018-06-13T07:24:25.601Z,17.90
2018-06-13T07:24:59.507Z,17.90
2018-06-13T07:25:33.366Z,17.90
2018-06-13T07:26:07.317Z,17.90
2018-06-13T07:26:41.459Z,17.80
2018-06-13T07:27:15.360Z,17.80
2018-06-13T07:27:49.250Z,17.80